createdAt,value
2019-03-31T00:02:00.083Z,110.03
2019-03-31T00:04:31.146Z,108.03
2019-03-31T00:07:02.274Z,104.50
2019-03-31T00:09:33.275Z,101.27
2019-03-31T00:12:04.353Z,98.80
2019-03-31T00:14:35.477Z,93.97
2019-03-31T00:17:08.109Z,96.90
2019-03-31T00:19:41.290Z,98.27
2019-03-31T00:22:12.387Z,94.87
2019-03-31T00:24:44.557Z,94.90
2019-03-31T00:27:15.666Z,102.87
2019-03-31T00:29:46.765Z,100.97
2019-03-31T00:32:17.819Z,96.23
2019-03-31T00:34:48.964Z,98.33
2019-03-31T00:37:20.016Z,96.97
2019-03-31T00:39:53.332Z,93.53
2019-03-31T00:42:24.437Z,94.43
2019-03-31T00:44:56.539Z,94.80
2019-03-31T00:47:27.651Z,86.87
2019-03-31T00:50:00.747Z,86.67
2019-03-31T00:52:31.895Z,85.07
2019-03-31T00:55:04.077Z,85.07
2019-03-31T00:57:35.128Z,84.87
2019-03-31T01:00:07.239Z,92.60
2019-03-31T01:02:39.941Z,90.07
2019-03-31T01:05:11.304Z,89.03
2019-03-31T01:07:42.478Z,94.33
2019-03-31T01:10:15.683Z,96.37
2019-03-31T01:12:48.563Z,89.90
2019-03-31T01:15:23.371Z,90.57
2019-03-31T01:17:54.883Z,90.50
2019-03-31T01:20:27.138Z,89.27
2019-03-31T01:22:59.575Z,92.23
2019-03-31T01:25:31.676Z,90.60
2019-03-31T01:28:02.944Z,87.70
2019-03-31T01:30:35.597Z,84.57
2019-03-31T01:33:07.340Z,81.77
2019-03-31T01:35:38.804Z,75.70
2019-03-31T01:38:09.965Z,79.40
2019-03-31T01:40:41.085Z,78.43
2019-03-31T01:43:12.186Z,79.97
2019-03-31T01:45:43.303Z,72.97
2019-03-31T01:48:14.461Z,71.17
2019-03-31T01:50:46.367Z,64.77
2019-03-31T01:53:17.508Z,64.70
2019-03-31T01:55:48.644Z,63.63
2019-03-31T01:58:19.723Z,64.53
2019-03-31T02:01:00.081Z,62.60
2019-03-31T02:03:31.256Z,68.87
2019-03-31T02:06:03.493Z,67.47
2019-03-31T02:08:35.609Z,66.47
2019-03-31T02:11:08.764Z,61.73
2019-03-31T02:13:39.817Z,67.63
2019-03-31T02:16:11.047Z,67.90
2019-03-31T02:18:42.189Z,69.17
2019-03-31T02:21:13.237Z,69.10
2019-03-31T02:23:44.330Z,68.27
2019-03-31T02:26:15.522Z,68.07
2019-03-31T02:28:46.761Z,64.63
2019-03-31T02:31:17.765Z,67.57
2019-03-31T02:33:51.147Z,66.53
2019-03-31T02:36:22.305Z,66.10
2019-03-31T02:38:53.357Z,62.17
2019-03-31T02:41:24.562Z,65.17
2019-03-31T02:43:55.606Z,66.93
2019-03-31T02:46:26.593Z,66.97
2019-03-31T02:48:58.120Z,68.03
2019-03-31T02:51:29.155Z,65.43
2019-03-31T02:54:00.295Z,65.37
2019-03-31T02:56:32.793Z,65.33
2019-03-31T02:59:03.932Z,65.97
2019-03-31T03:01:35.637Z,66.43
2019-03-31T03:04:08.564Z,65.80
2019-03-31T03:06:41.304Z,69.37
2019-03-31T03:09:14.454Z,67.87
2019-03-31T03:11:47.249Z,67.10
2019-03-31T03:14:18.993Z,67.57
2019-03-31T03:16:51.421Z,70.63
2019-03-31T03:19:22.476Z,70.93
2019-03-31T03:21:57.751Z,68.63
2019-03-31T03:24:28.934Z,68.83
2019-03-31T03:27:00.588Z,67.67
2019-03-31T03:29:31.937Z,69.10
2019-03-31T03:32:05.131Z,65.93
2019-03-31T03:34:37.883Z,64.03
2019-03-31T03:37:08.987Z,65.43
2019-03-31T03:39:40.144Z,62.83
2019-03-31T03:42:13.510Z,65.13
2019-03-31T03:44:45.267Z,63.63
2019-03-31T03:47:16.448Z,64.93
2019-03-31T03:49:47.499Z,63.93
2019-03-31T03:52:18.686Z,63.60
2019-03-31T03:54:49.715Z,65.43
2019-03-31T03:57:21.890Z,66.17
2019-03-31T03:59:53.091Z,64.63
2019-03-31T04:02:25.810Z,62.97
2019-03-31T04:04:58.354Z,60.27
2019-03-31T04:07:29.618Z,64.50
2019-03-31T04:10:00.679Z,57.70
2019-03-31T04:12:31.742Z,59.43
2019-03-31T04:15:04.228Z,58.10
2019-03-31T04:17:35.897Z,58.83
2019-03-31T04:20:07.014Z,63.10
2019-03-31T04:22:38.071Z,61.93
2019-03-31T04:25:09.146Z,60.40
2019-03-31T04:27:40.155Z,61.10
2019-03-31T04:30:11.209Z,60.80
2019-03-31T04:32:42.365Z,63.47
2019-03-31T04:35:13.791Z,62.47
2019-03-31T04:37:45.049Z,61.47
2019-03-31T04:40:17.388Z,62.10
2019-03-31T04:42:48.583Z,64.30
2019-03-31T04:45:20.125Z,61.97
2019-03-31T04:47:51.092Z,61.10
2019-03-31T04:50:22.266Z,56.93
2019-03-31T04:52:55.201Z,53.47
2019-03-31T04:55:26.200Z,51.47
2019-03-31T04:57:57.253Z,53.40
2019-03-31T05:00:28.282Z,54.00
2019-03-31T05:02:59.399Z,56.47
2019-03-31T05:05:30.439Z,54.50
2019-03-31T05:08:01.482Z,56.43
2019-03-31T05:10:32.615Z,55.73
2019-03-31T05:13:04.664Z,56.90
2019-03-31T05:15:37.124Z,56.07
2019-03-31T05:18:08.328Z,57.27
2019-03-31T05:20:39.420Z,57.03
2019-03-31T05:23:10.495Z,57.60
2019-03-31T05:25:41.539Z,56.47
2019-03-31T05:28:12.635Z,55.90
2019-03-31T05:30:43.716Z,56.20
2019-03-31T05:33:14.863Z,56.20
2019-03-31T05:35:48.415Z,58.10
2019-03-31T05:38:19.540Z,62.10
2019-03-31T05:40:51.217Z,63.93
2019-03-31T05:43:30.211Z,60.07
2019-03-31T05:46:02.862Z,61.83
2019-03-31T05:48:33.980Z,62.47
2019-03-31T05:51:05.653Z,61.60
2019-03-31T05:53:37.437Z,64.30
2019-03-31T05:56:10.083Z,62.17
2019-03-31T05:58:41.783Z,62.47
2019-03-31T06:01:12.873Z,61.10
2019-03-31T06:03:46.382Z,64.37
2019-03-31T06:06:18.774Z,60.20
2019-03-31T06:08:51.325Z,62.93
2019-03-31T06:11:22.457Z,59.03
2019-03-31T06:13:55.868Z,56.33
2019-03-31T06:16:27.497Z,55.37
2019-03-31T06:18:58.568Z,57.13
2019-03-31T06:21:31.437Z,51.77
2019-03-31T06:24:02.499Z,52.37
2019-03-31T06:26:33.576Z,51.60
2019-03-31T06:29:07.262Z,52.80
2019-03-31T06:31:41.423Z,51.87
2019-03-31T06:34:12.876Z,52.93
2019-03-31T06:36:43.946Z,54.47
2019-03-31T06:39:15.924Z,53.97
2019-03-31T06:41:47.099Z,53.80
2019-03-31T06:44:20.912Z,54.53
2019-03-31T06:46:52.561Z,52.40
2019-03-31T06:49:23.622Z,53.50
2019-03-31T06:51:54.784Z,49.53
2019-03-31T06:54:25.985Z,48.53
2019-03-31T06:57:00.652Z,50.63
2019-03-31T06:59:32.370Z,46.27
2019-03-31T07:02:07.210Z,46.77
2019-03-31T07:04:39.492Z,45.63
2019-03-31T07:07:10.625Z,45.30
2019-03-31T07:09:42.166Z,48.77
2019-03-31T07:12:14.991Z,47.10
2019-03-31T07:14:46.129Z,50.30
2019-03-31T07:17:24.166Z,46.37
2019-03-31T07:19:56.437Z,46.33
2019-03-31T07:22:29.219Z,43.53
2019-03-31T07:25:02.865Z,41.07
2019-03-31T07:27:33.624Z,37.57
2019-03-31T07:30:07.870Z,38.77
2019-03-31T07:32:41.088Z,37.20
2019-03-31T07:35:18.598Z,38.57
2019-03-31T07:37:47.465Z,36.40
2019-03-31T07:40:21.025Z,36.07
2019-03-31T07:42:53.764Z,35.87
2019-03-31T07:45:24.861Z,35.13
2019-03-31T07:47:55.983Z,34.30
2019-03-31T07:50:28.401Z,33.87
2019-03-31T07:53:00.724Z,33.70
2019-03-31T07:55:34.372Z,33.90
2019-03-31T07:58:07.958Z,36.40
2019-03-31T08:00:39.014Z,35.03
2019-03-31T08:03:10.179Z,34.63
2019-03-31T08:05:43.763Z,33.73
2019-03-31T08:08:14.924Z,32.40
2019-03-31T08:10:45.982Z,33.37
2019-03-31T08:13:19.426Z,31.97
2019-03-31T08:15:50.482Z,30.70
2019-03-31T08:18:24.849Z,29.13
2019-03-31T08:20:57.013Z,28.47
2019-03-31T08:23:28.237Z,30.67
2019-03-31T08:26:00.452Z,26.93
2019-03-31T08:28:35.409Z,24.77
2019-03-31T08:31:07.584Z,29.40
2019-03-31T08:33:38.741Z,27.47
2019-03-31T08:36:10.111Z,28.13
2019-03-31T08:38:41.430Z,27.37
2019-03-31T08:41:14.561Z,26.07
2019-03-31T08:43:45.774Z,26.87
2019-03-31T08:46:20.285Z,25.67
2019-03-31T08:48:51.578Z,23.30
2019-03-31T08:52:43.110Z,21.30
2019-03-31T08:55:14.550Z,19.80
2019-03-31T08:57:45.708Z,19.33
2019-03-31T09:02:49.887Z,19.17
2019-03-31T09:05:23.312Z,18.87
2019-03-31T09:07:54.558Z,18.03
2019-03-31T09:10:25.656Z,18.80
2019-03-31T09:12:58.090Z,17.33
2019-03-31T09:15:29.233Z,18.60
2019-03-31T09:18:00.402Z,17.37
2019-03-31T09:20:40.308Z,17.47
2019-03-31T09:23:11.450Z,17.00
2019-03-31T09:25:42.584Z,17.00
2019-03-31T09:28:15.575Z,18.87
2019-03-31T09:30:46.832Z,16.77
2019-03-31T09:33:18.056Z,18.67
2019-03-31T09:35:49.376Z,21.17
2019-03-31T09:38:20.555Z,19.10
2019-03-31T09:40:52.231Z,19.87
2019-03-31T09:43:32.796Z,20.07
2019-03-31T09:46:03.885Z,19.53
2019-03-31T09:48:35.034Z,20.20
2019-03-31T09:51:06.250Z,19.73
2019-03-31T09:53:37.474Z,21.03
2019-03-31T09:56:08.684Z,23.10
2019-03-31T09:58:39.813Z,22.33
2019-03-31T10:01:11.162Z,22.93
2019-03-31T10:03:43.661Z,22.87
2019-03-31T10:06:14.826Z,21.50
2019-03-31T10:08:46.198Z,20.87
2019-03-31T10:11:18.276Z,19.27
2019-03-31T10:13:49.413Z,21.20
2019-03-31T10:16:20.528Z,20.20
2019-03-31T10:18:51.574Z,22.23
2019-03-31T10:21:22.817Z,21.50
2019-03-31T10:23:53.861Z,22.33
2019-03-31T10:26:31.803Z,21.50
2019-03-31T10:28:57.611Z,20.97
2019-03-31T10:31:28.704Z,25.03
2019-03-31T10:33:59.859Z,21.27
2019-03-31T10:36:43.811Z,21.53
2019-03-31T10:39:04.122Z,21.77
2019-03-31T10:41:35.500Z,20.67
2019-03-31T10:44:06.775Z,22.93
2019-03-31T10:46:38.916Z,22.23
2019-03-31T10:49:10.130Z,22.63
2019-03-31T10:51:41.248Z,21.47
2019-03-31T10:54:12.376Z,22.10
2019-03-31T10:56:43.722Z,23.27
2019-03-31T10:59:14.922Z,22.90
2019-03-31T11:01:46.098Z,22.47
2019-03-31T11:04:17.220Z,24.70
2019-03-31T11:06:58.818Z,24.07
2019-03-31T11:09:23.969Z,24.03
2019-03-31T11:11:55.101Z,22.90
2019-03-31T11:14:26.335Z,24.87
2019-03-31T11:16:57.460Z,25.67
2019-03-31T11:19:28.729Z,25.13
2019-03-31T11:22:10.175Z,27.07
2019-03-31T11:24:41.213Z,24.77
2019-03-31T11:27:12.408Z,26.03
2019-03-31T11:29:43.477Z,24.80
2019-03-31T11:32:14.567Z,25.60
2019-03-31T11:34:45.621Z,27.13
2019-03-31T11:37:16.799Z,29.37
2019-03-31T11:39:48.086Z,24.83
2019-03-31T11:42:19.231Z,27.47
2019-03-31T11:44:50.395Z,25.60
2019-03-31T11:47:21.585Z,25.33
2019-03-31T11:49:52.835Z,24.70
2019-03-31T11:52:23.945Z,26.47
2019-03-31T11:54:55.093Z,26.40
2019-03-31T11:57:27.792Z,23.57
2019-03-31T11:59:58.816Z,24.33
2019-03-31T12:02:29.958Z,22.40
2019-03-31T12:05:01.180Z,24.70
2019-03-31T12:07:45.945Z,21.70
2019-03-31T12:10:05.455Z,22.00
2019-03-31T12:12:36.576Z,27.63
2019-03-31T12:15:08.611Z,24.20
2019-03-31T12:17:40.756Z,24.23
2019-03-31T12:20:12.125Z,22.47
2019-03-31T12:22:43.294Z,20.40
2019-03-31T12:25:19.542Z,23.30
2019-03-31T12:27:48.889Z,26.07
2019-03-31T12:30:29.158Z,23.97
2019-03-31T12:33:00.317Z,20.03
2019-03-31T12:35:31.442Z,19.90
2019-03-31T12:38:04.362Z,19.30
2019-03-31T12:40:36.463Z,18.77
2019-03-31T12:43:07.534Z,23.73
2019-03-31T12:45:42.997Z,27.23
2019-03-31T12:48:12.604Z,23.53
2019-03-31T12:50:43.939Z,20.53
2019-03-31T12:53:15.220Z,21.53
2019-03-31T12:55:59.491Z,18.43
2019-03-31T12:58:19.417Z,19.03
2019-03-31T13:00:51.091Z,19.33
2019-03-31T13:03:22.444Z,19.57
2019-03-31T13:05:54.857Z,18.97
2019-03-31T13:08:26.089Z,20.67
2019-03-31T13:10:57.225Z,18.37
2019-03-31T13:13:28.341Z,19.77
2019-03-31T13:16:01.156Z,20.53
2019-03-31T13:18:34.699Z,19.77
2019-03-31T13:21:05.928Z,20.27
2019-03-31T13:23:37.091Z,20.33
2019-03-31T13:26:10.584Z,18.43
2019-03-31T13:28:42.859Z,19.17
2019-03-31T13:31:16.067Z,18.97
2019-03-31T13:33:47.105Z,21.10
2019-03-31T13:36:18.221Z,19.90
2019-03-31T13:38:49.371Z,19.87
2019-03-31T13:41:22.701Z,21.30
2019-03-31T13:43:53.822Z,21.40
2019-03-31T13:46:24.977Z,20.63
2019-03-31T13:48:56.153Z,19.23
2019-03-31T13:51:28.417Z,18.97
2019-03-31T13:54:03.102Z,22.20
2019-03-31T13:56:34.189Z,21.87
2019-03-31T13:59:06.390Z,22.93
2019-03-31T14:01:38.121Z,22.47
2019-03-31T14:04:09.284Z,22.60
2019-03-31T14:06:41.780Z,19.80
2019-03-31T14:09:13.815Z,19.77
2019-03-31T14:11:48.307Z,18.47
2019-03-31T14:14:17.749Z,20.23
2019-03-31T14:16:48.919Z,21.17
2019-03-31T14:19:20.090Z,19.33
2019-03-31T14:21:51.187Z,20.27
2019-03-31T14:24:22.372Z,20.17
2019-03-31T14:26:53.475Z,19.83
2019-03-31T14:29:24.537Z,19.43
2019-03-31T14:31:55.706Z,19.40
2019-03-31T14:34:26.819Z,20.93
2019-03-31T14:36:59.258Z,18.63
2019-03-31T14:39:30.319Z,19.80
2019-03-31T14:42:01.563Z,17.97
2019-03-31T14:44:32.707Z,18.73
2019-03-31T14:47:04.045Z,18.43
2019-03-31T14:49:35.497Z,17.40
2019-03-31T14:52:07.984Z,17.73
2019-03-31T14:54:42.096Z,17.63
2019-03-31T14:57:17.698Z,18.33
2019-03-31T14:59:52.710Z,18.83
2019-03-31T15:02:28.735Z,17.87
2019-03-31T15:05:04.395Z,18.30
2019-03-31T15:07:35.473Z,18.87
2019-03-31T15:10:08.518Z,18.53
2019-03-31T15:12:41.365Z,20.33
2019-03-31T15:15:12.611Z,17.90
2019-03-31T15:17:44.405Z,16.63
2019-03-31T15:20:15.569Z,16.77
2019-03-31T15:22:46.640Z,19.80
2019-03-31T15:25:17.775Z,21.03
2019-03-31T15:27:49.009Z,20.47
2019-03-31T15:30:21.118Z,20.53
2019-03-31T15:32:52.295Z,21.03
2019-03-31T15:35:23.679Z,20.60
2019-03-31T15:37:54.875Z,22.47
2019-03-31T15:40:25.984Z,17.13
2019-03-31T15:42:57.132Z,17.77
2019-03-31T15:45:28.327Z,20.40
2019-03-31T15:47:59.501Z,20.77
2019-03-31T15:50:30.717Z,22.13
2019-03-31T15:53:03.043Z,22.20
2019-03-31T15:55:34.102Z,22.33
2019-03-31T15:58:05.560Z,21.23
2019-03-31T16:00:40.154Z,22.20
2019-03-31T16:03:11.333Z,21.27
2019-03-31T16:05:42.342Z,23.63
2019-03-31T16:08:13.448Z,22.47
2019-03-31T16:10:44.087Z,20.97
2019-03-31T16:13:15.650Z,24.37
2019-03-31T16:15:46.349Z,21.80
2019-03-31T16:18:17.013Z,22.53
2019-03-31T16:20:49.281Z,22.97
2019-03-31T16:23:19.846Z,24.50
2019-03-31T16:25:52.949Z,23.97
2019-03-31T16:28:23.606Z,24.13
2019-03-31T16:30:54.303Z,23.17
2019-03-31T16:33:24.955Z,22.83
2019-03-31T16:35:55.575Z,23.67
2019-03-31T16:38:26.284Z,23.47
2019-03-31T16:40:56.875Z,25.87
2019-03-31T16:43:27.621Z,22.30
2019-03-31T16:45:58.227Z,23.93
2019-03-31T16:48:28.849Z,25.03
2019-03-31T16:50:59.534Z,21.63
2019-03-31T16:53:30.177Z,29.47
2019-03-31T16:56:00.830Z,22.07
2019-03-31T16:58:33.243Z,24.80
2019-03-31T17:01:03.841Z,21.97
2019-03-31T17:03:35.933Z,19.60
2019-03-31T17:06:06.502Z,19.90
2019-03-31T17:08:37.093Z,19.97
2019-03-31T17:11:07.703Z,19.50
2019-03-31T17:13:38.328Z,17.03
2019-03-31T17:16:09.041Z,21.07
2019-03-31T17:18:39.596Z,19.87
2019-03-31T17:21:10.281Z,19.90
2019-03-31T17:23:40.798Z,22.13
2019-03-31T17:26:11.353Z,21.30
2019-03-31T17:28:41.943Z,21.60
2019-03-31T17:31:12.561Z,21.87
2019-03-31T17:33:43.306Z,20.17
2019-03-31T17:36:13.917Z,17.47
2019-03-31T17:38:46.063Z,17.10
2019-03-31T17:41:16.611Z,18.03
2019-03-31T17:43:47.251Z,14.63
2019-03-31T17:46:17.792Z,17.13
2019-03-31T17:48:50.917Z,17.00
2019-03-31T17:51:21.513Z,16.40
2019-03-31T17:53:52.054Z,16.97
2019-03-31T17:56:22.562Z,14.73
2019-03-31T17:58:53.100Z,16.17
2019-03-31T18:01:23.705Z,16.93
2019-03-31T18:03:54.476Z,19.13
2019-03-31T18:06:26.164Z,19.03
2019-03-31T18:08:56.731Z,15.83
2019-03-31T18:11:28.662Z,18.33
2019-03-31T18:13:59.187Z,13.63
2019-03-31T18:16:29.727Z,15.20
2019-03-31T18:19:00.520Z,18.10
2019-03-31T18:21:31.130Z,18.17
2019-03-31T18:24:01.687Z,14.97
2019-03-31T18:26:32.598Z,15.37
2019-03-31T18:29:03.207Z,14.77
2019-03-31T18:31:35.008Z,16.53
2019-03-31T18:34:07.445Z,17.23
2019-03-31T18:36:38.047Z,14.33
2019-03-31T18:39:08.778Z,15.10
2019-03-31T18:41:39.376Z,15.40
2019-03-31T18:44:11.775Z,14.27
2019-03-31T18:46:42.340Z,15.03
2019-03-31T18:49:12.885Z,14.00
2019-03-31T18:51:44.258Z,14.00
2019-03-31T18:54:25.293Z,13.43
2019-03-31T18:57:17.551Z,12.30
2019-03-31T19:00:12.879Z,11.20
2019-03-31T19:03:03.600Z,12.27
2019-03-31T19:06:11.321Z,12.23
2019-03-31T19:09:04.109Z,12.60
2019-03-31T19:11:54.341Z,10.63
2019-03-31T19:14:42.924Z,11.87
2019-03-31T19:17:28.363Z,11.67
2019-03-31T19:20:26.704Z,13.07
2019-03-31T19:23:36.734Z,12.80
2019-03-31T19:26:28.264Z,13.60
2019-03-31T19:29:17.149Z,14.07
2019-03-31T19:32:18.313Z,14.47
2019-03-31T19:35:05.841Z,14.07
2019-03-31T19:37:52.575Z,13.90
2019-03-31T19:40:44.863Z,12.30
2019-03-31T19:43:40.376Z,13.13
2019-03-31T19:46:26.615Z,11.73
2019-03-31T19:49:08.905Z,13.47
2019-03-31T19:52:06.577Z,13.37
2019-03-31T19:55:04.198Z,13.93
2019-03-31T19:57:59.553Z,13.37
2019-03-31T20:00:50.439Z,14.80
2019-03-31T20:03:55.326Z,16.53
2019-03-31T20:06:38.468Z,16.20
2019-03-31T20:09:27.312Z,17.43
2019-03-31T20:12:29.183Z,15.97
2019-03-31T20:15:17.315Z,15.47
2019-03-31T20:18:07.029Z,13.37
2019-03-31T20:21:02.526Z,13.57
2019-03-31T20:23:55.910Z,13.63
2019-03-31T20:26:55.625Z,11.20
2019-03-31T20:29:51.432Z,12.43
2019-03-31T20:32:41.034Z,12.93
2019-03-31T20:35:27.054Z,14.13
2019-03-31T20:38:11.694Z,13.53
2019-03-31T20:41:00.838Z,13.17
2019-03-31T20:43:49.672Z,12.80
2019-03-31T20:46:20.246Z,13.00
2019-03-31T20:48:50.812Z,13.73
2019-03-31T20:51:21.273Z,12.43
2019-03-31T20:53:51.934Z,12.87
2019-03-31T20:56:22.539Z,13.57
2019-03-31T20:58:53.311Z,14.23
2019-03-31T21:01:23.801Z,14.40
2019-03-31T21:03:54.367Z,13.43
2019-03-31T21:06:25.003Z,13.00
2019-03-31T21:08:55.704Z,14.30
2019-03-31T21:11:26.281Z,14.70
2019-03-31T21:13:57.350Z,14.70
2019-03-31T21:16:29.134Z,13.37
2019-03-31T21:18:59.701Z,14.80
2019-03-31T21:21:31.666Z,12.63
2019-03-31T21:24:05.239Z,13.63
2019-03-31T21:26:36.782Z,13.77
2019-03-31T21:29:07.385Z,14.90
2019-03-31T21:31:37.948Z,16.13
2019-03-31T21:34:08.595Z,15.87
2019-03-31T21:36:39.066Z,16.27
2019-03-31T21:39:09.574Z,15.73
2019-03-31T21:41:41.835Z,15.80
2019-03-31T21:44:12.395Z,18.03
2019-03-31T21:46:43.017Z,17.50
2019-03-31T21:49:13.795Z,18.90
2019-03-31T21:51:44.395Z,20.20
2019-03-31T21:54:15.117Z,17.50
2019-03-31T21:56:45.792Z,17.07
2019-03-31T21:59:16.367Z,16.63
2019-03-31T22:01:46.923Z,15.03
2019-03-31T22:04:18.966Z,15.57
2019-03-31T22:06:49.508Z,15.67
2019-03-31T22:09:21.004Z,15.37
2019-03-31T22:11:51.557Z,13.83
2019-03-31T22:14:22.037Z,14.43
2019-03-31T22:16:56.166Z,13.80
2019-03-31T22:19:27.811Z,15.13
2019-03-31T22:21:59.439Z,15.13
2019-03-31T22:24:30.984Z,14.17
2019-03-31T22:27:01.592Z,13.60
2019-03-31T22:29:32.193Z,15.20
2019-03-31T22:32:02.813Z,14.27
2019-03-31T22:34:34.515Z,13.83
2019-03-31T22:37:05.707Z,13.90
2019-03-31T22:39:36.300Z,13.73
2019-03-31T22:42:07.022Z,14.30
2019-03-31T22:44:37.624Z,14.53
2019-03-31T22:47:08.365Z,14.10
2019-03-31T22:49:39.708Z,14.00
2019-03-31T22:52:10.343Z,12.23
2019-03-31T22:54:40.975Z,13.60
2019-03-31T22:57:14.527Z,13.70
2019-03-31T22:59:45.228Z,14.37
2019-03-31T23:02:15.757Z,15.47
2019-03-31T23:04:46.334Z,13.33
2019-03-31T23:07:16.830Z,16.30
2019-03-31T23:09:47.529Z,14.43
2019-03-31T23:12:18.112Z,13.60
2019-03-31T23:14:50.861Z,15.80
2019-03-31T23:17:21.297Z,15.73
2019-03-31T23:19:51.895Z,15.07
2019-03-31T23:22:22.391Z,13.67
2019-03-31T23:24:54.022Z,13.87
2019-03-31T23:27:24.645Z,14.27
2019-03-31T23:29:55.220Z,13.47
2019-03-31T23:32:25.811Z,14.57
2019-03-31T23:34:56.301Z,14.23
2019-03-31T23:37:26.901Z,13.60
2019-03-31T23:39:58.014Z,12.23
2019-03-31T23:42:30.156Z,13.37
2019-03-31T23:45:00.640Z,13.50
2019-03-31T23:47:31.240Z,12.87
2019-03-31T23:50:01.757Z,10.87
2019-03-31T23:52:32.355Z,11.00
2019-03-31T23:55:02.984Z,11.83
2019-03-31T23:57:40.020Z,12.77
